createdAt,value
2018-06-15T00:00:09.863Z,14.40
2018-06-15T00:02:38.606Z,14.40
2018-06-15T00:05:07.224Z,14.40
2018-06-15T00:07:35.774Z,14.40
2018-06-15T00:10:04.418Z,14.50
2018-06-15T00:12:33.369Z,14.60
2018-06-15T00:15:02.302Z,14.60
2018-06-15T00:17:30.828Z,14.60
2018-06-15T00:19:59.962Z,14.60
2018-06-15T00:22:28.680Z,14.60
2018-06-15T00:24:57.286Z,14.60
2018-06-15T00:27:26.284Z,14.60
2018-06-15T00:29:54.895Z,14.60
2018-06-15T00:32:23.440Z,14.50
2018-06-15T00:34:52.080Z,14.50
2018-06-15T00:37:21.056Z,14.40
2018-06-15T00:39:49.814Z,14.50
2018-06-15T00:42:18.376Z,14.40
2018-06-15T00:44:47.201Z,14.40
2018-06-15T00:47:15.747Z,14.40
2018-06-15T00:49:44.476Z,14.30
2018-06-15T00:52:13.319Z,14.30
2018-06-15T00:54:41.933Z,14.30
2018-06-15T00:57:21.553Z,14.30
2018-06-15T00:59:50.380Z,14.40
2018-06-15T01:02:18.966Z,14.30
2018-06-15T01:04:47.774Z,14.30
2018-06-15T01:07:16.281Z,14.30
2018-06-15T01:09:44.828Z,14.30
2018-06-15T01:12:16.945Z,14.30
2018-06-15T01:14:45.478Z,14.30
2018-06-15T01:17:14.036Z,14.20
2018-06-15T01:19:42.718Z,14.10
2018-06-15T01:22:11.279Z,14.10
2018-06-15T01:24:39.889Z,13.90
2018-06-15T01:27:08.424Z,13.90
2018-06-15T01:29:37.282Z,13.90
2018-06-15T01:32:05.829Z,13.90
2018-06-15T01:34:34.420Z,13.90
2018-06-15T01:37:02.970Z,13.90
2018-06-15T01:39:31.913Z,13.80
2018-06-15T01:42:00.466Z,13.90
2018-06-15T01:44:29.032Z,13.90
2018-06-15T01:46:57.578Z,13.90
2018-06-15T01:49:26.428Z,13.90
2018-06-15T01:51:55.036Z,13.90
2018-06-15T01:54:23.674Z,13.90
2018-06-15T01:56:52.777Z,13.80
2018-06-15T01:59:21.482Z,13.80
2018-06-15T02:01:50.380Z,13.80
2018-06-15T02:04:19.016Z,13.70
2018-06-15T02:06:47.721Z,13.70
2018-06-15T02:09:16.264Z,13.70
2018-06-15T02:11:44.812Z,13.60
2018-06-15T02:14:13.520Z,13.60
2018-06-15T02:16:42.026Z,13.60
2018-06-15T02:19:10.733Z,13.60
2018-06-15T02:21:39.342Z,13.50
2018-06-15T02:24:08.090Z,13.50
2018-06-15T02:26:36.701Z,13.50
2018-06-15T02:29:05.273Z,13.50
2018-06-15T02:31:33.861Z,13.50
2018-06-15T02:34:02.397Z,13.50
2018-06-15T02:38:59.252Z,13.50
2018-06-15T02:41:28.205Z,13.50
2018-06-15T02:43:56.794Z,13.40
2018-06-15T02:46:25.786Z,13.40
2018-06-15T02:48:54.338Z,13.40
2018-06-15T02:51:23.177Z,13.30
2018-06-15T02:53:52.226Z,13.30
2018-06-15T02:56:20.882Z,13.30
2018-06-15T02:58:49.639Z,13.20
2018-06-15T03:01:18.536Z,13.20
2018-06-15T03:03:47.142Z,13.20
2018-06-15T03:06:15.754Z,13.20
2018-06-15T03:08:44.316Z,13.30
2018-06-15T03:11:12.926Z,13.30
2018-06-15T03:13:41.551Z,13.30
2018-06-15T03:16:10.658Z,13.30
2018-06-15T03:18:39.670Z,13.30
2018-06-15T03:21:08.443Z,13.30
2018-06-15T03:23:37.285Z,13.40
2018-06-15T03:26:05.904Z,13.40
2018-06-15T03:28:34.606Z,13.30
2018-06-15T03:31:03.291Z,13.30
2018-06-15T03:33:31.930Z,13.30
2018-06-15T03:36:00.603Z,13.30
2018-06-15T03:38:47.097Z,13.30
2018-06-15T03:41:15.705Z,13.30
2018-06-15T03:43:44.385Z,13.30
2018-06-15T03:46:13.034Z,13.20
2018-06-15T03:48:41.674Z,13.30
2018-06-15T03:51:10.395Z,13.30
2018-06-15T03:53:39.162Z,13.30
2018-06-15T03:56:07.883Z,13.30
2018-06-15T03:58:36.994Z,13.30
2018-06-15T04:01:05.674Z,13.20
2018-06-15T04:03:34.407Z,13.30
2018-06-15T04:06:03.015Z,13.30
2018-06-15T04:08:31.698Z,13.30
2018-06-15T04:11:00.307Z,13.40
2018-06-15T04:13:28.958Z,13.40
2018-06-15T04:15:57.628Z,13.60
2018-06-15T04:18:26.335Z,13.60
2018-06-15T04:20:54.901Z,13.70
2018-06-15T04:23:23.585Z,13.80
2018-06-15T04:25:52.251Z,13.90
2018-06-15T04:28:20.896Z,14.00
2018-06-15T04:30:49.558Z,14.10
2018-06-15T04:33:18.261Z,14.20
2018-06-15T04:35:47.636Z,14.30
2018-06-15T04:38:16.290Z,14.40
2018-06-15T04:40:44.933Z,14.40
2018-06-15T04:43:13.576Z,14.50
2018-06-15T04:45:42.228Z,14.50
2018-06-15T04:48:11.249Z,14.50
2018-06-15T04:50:39.885Z,14.60
2018-06-15T04:53:08.541Z,14.70
2018-06-15T04:55:37.187Z,14.80
2018-06-15T04:58:05.890Z,14.80
2018-06-15T05:00:34.545Z,14.90
2018-06-15T05:03:03.849Z,14.90
2018-06-15T05:05:32.976Z,14.90
2018-06-15T05:08:02.150Z,14.90
2018-06-15T05:10:31.517Z,15.00
2018-06-15T05:13:00.515Z,15.10
2018-06-15T05:15:29.979Z,15.20
2018-06-15T05:17:58.564Z,15.30
2018-06-15T05:20:27.365Z,15.30
2018-06-15T05:22:56.151Z,15.30
2018-06-15T05:25:24.861Z,15.30
2018-06-15T05:27:53.484Z,15.30
2018-06-15T05:30:22.405Z,15.30
2018-06-15T05:32:51.094Z,15.40
2018-06-15T05:35:20.031Z,15.40
2018-06-15T05:37:48.618Z,15.50
2018-06-15T05:40:18.704Z,15.70
2018-06-15T05:42:47.236Z,15.80
2018-06-15T05:45:16.349Z,15.90
2018-06-15T05:47:45.054Z,16.00
2018-06-15T05:50:13.735Z,16.10
2018-06-15T05:52:42.422Z,16.20
2018-06-15T05:55:11.101Z,16.20
2018-06-15T05:57:39.955Z,16.30
2018-06-15T06:00:08.621Z,16.30
2018-06-15T06:02:37.184Z,16.30
2018-06-15T06:05:05.919Z,16.30
2018-06-15T06:07:34.491Z,16.50
2018-06-15T06:10:03.066Z,16.60
2018-06-15T06:12:31.677Z,16.70
2018-06-15T06:15:00.378Z,16.80
2018-06-15T06:17:29.068Z,17.00
2018-06-15T06:19:58.321Z,17.10
2018-06-15T06:22:27.010Z,17.30
2018-06-15T06:24:55.674Z,17.50
2018-06-15T06:27:24.387Z,17.60
2018-06-15T06:29:53.056Z,17.80
2018-06-15T06:32:21.734Z,18.00
2018-06-15T06:34:50.341Z,18.20
2018-06-15T06:37:18.957Z,18.30
2018-06-15T06:39:47.674Z,18.30
2018-06-15T06:42:16.554Z,18.40
2018-06-15T06:44:45.192Z,18.50
2018-06-15T06:47:13.867Z,18.60
2018-06-15T06:49:42.374Z,18.70
2018-06-15T06:52:10.932Z,18.80
2018-06-15T06:54:39.802Z,18.90
2018-06-15T06:57:08.874Z,19.00
2018-06-15T06:59:37.433Z,19.10
2018-06-15T07:02:06.552Z,19.30
2018-06-15T07:04:35.146Z,19.20
2018-06-15T07:07:03.726Z,19.40
2018-06-15T07:09:32.390Z,19.50
2018-06-15T07:12:00.973Z,19.80
2018-06-15T07:14:29.873Z,20.10
2018-06-15T07:16:58.433Z,20.20
2018-06-15T07:19:27.121Z,20.30
2018-06-15T07:21:55.936Z,20.50
2018-06-15T07:24:24.610Z,20.90
2018-06-15T07:26:53.202Z,21.20
2018-06-15T07:29:21.798Z,21.50
2018-06-15T07:31:50.717Z,21.50
2018-06-15T07:34:19.587Z,21.60
2018-06-15T07:36:48.203Z,21.90
2018-06-15T07:39:16.975Z,22.00
2018-06-15T07:41:45.525Z,22.10
2018-06-15T07:44:14.186Z,22.20
2018-06-15T07:46:42.758Z,22.70
2018-06-15T07:49:11.357Z,22.80
2018-06-15T07:51:39.931Z,22.90
2018-06-15T07:54:08.741Z,22.90
2018-06-15T07:56:37.734Z,23.00
2018-06-15T07:59:07.135Z,23.10
2018-06-15T08:01:35.778Z,23.10
2018-06-15T08:04:06.791Z,22.90
2018-06-15T08:06:35.593Z,22.80
2018-06-15T08:09:06.142Z,22.70
2018-06-15T08:11:34.832Z,22.80
2018-06-15T08:14:03.513Z,23.30
2018-06-15T08:16:32.646Z,23.70
2018-06-15T08:19:01.482Z,24.10
2018-06-15T08:21:30.426Z,24.30
2018-06-15T08:23:59.305Z,24.20
2018-06-15T08:26:27.961Z,24.50
2018-06-15T08:28:56.583Z,24.90
2018-06-15T08:31:25.162Z,25.10
2018-06-15T08:33:53.837Z,25.10
2018-06-15T08:36:22.495Z,25.00
2018-06-15T08:38:51.126Z,24.90
2018-06-15T08:41:19.809Z,24.50
2018-06-15T08:43:48.442Z,24.10
2018-06-15T08:46:17.091Z,23.80
2018-06-15T08:48:45.677Z,23.80
2018-06-15T08:51:14.305Z,23.60
2018-06-15T08:53:42.994Z,23.50
2018-06-15T08:56:11.688Z,23.80
2018-06-15T08:58:40.365Z,24.50
2018-06-15T09:01:09.013Z,25.20
2018-06-15T09:03:37.853Z,25.90
2018-06-15T09:06:06.496Z,26.60
2018-06-15T09:08:35.929Z,26.60
2018-06-15T09:11:04.587Z,25.70
2018-06-15T09:13:33.709Z,25.40
2018-06-15T09:16:02.746Z,25.70
2018-06-15T09:18:31.448Z,25.60
2018-06-15T09:21:00.111Z,25.50
2018-06-15T09:23:28.754Z,25.80
2018-06-15T09:25:57.917Z,26.00
2018-06-15T09:28:26.774Z,26.40
2018-06-15T09:30:55.492Z,26.90
2018-06-15T09:33:24.231Z,26.90
2018-06-15T09:35:52.794Z,27.10
2018-06-15T09:38:21.498Z,27.30
2018-06-15T09:40:50.195Z,27.40
2018-06-15T09:43:18.749Z,27.30
2018-06-15T09:45:47.342Z,27.10
2018-06-15T09:48:15.920Z,27.20
2018-06-15T09:50:44.508Z,27.50
2018-06-15T09:53:13.062Z,27.70
2018-06-15T09:55:41.681Z,27.40
2018-06-15T09:58:10.309Z,27.40
2018-06-15T10:00:44.115Z,27.50
2018-06-15T10:03:12.705Z,27.80
2018-06-15T10:05:41.258Z,27.90
2018-06-15T10:08:09.873Z,28.50
2018-06-15T10:10:38.453Z,29.30
2018-06-15T10:13:07.109Z,29.50
2018-06-15T10:15:35.843Z,29.60
2018-06-15T10:18:04.579Z,29.60
2018-06-15T10:20:33.166Z,30.00
2018-06-15T10:23:01.797Z,29.70
2018-06-15T10:25:30.429Z,29.60
2018-06-15T10:27:59.094Z,29.90
2018-06-15T10:30:27.771Z,30.00
2018-06-15T10:32:56.898Z,30.20
2018-06-15T10:35:25.510Z,30.40
2018-06-15T10:37:54.106Z,30.70
2018-06-15T10:40:22.777Z,30.40
2018-06-15T10:42:51.471Z,30.00
2018-06-15T10:45:20.119Z,30.10
2018-06-15T10:47:48.739Z,30.40
2018-06-15T10:50:17.434Z,31.00
2018-06-15T10:52:46.066Z,31.40
2018-06-15T10:55:14.721Z,31.70
2018-06-15T10:57:43.610Z,32.50
2018-06-15T11:00:12.196Z,32.90
2018-06-15T11:02:40.830Z,33.20
2018-06-15T11:05:09.483Z,32.40
2018-06-15T11:07:38.111Z,32.50
2018-06-15T11:10:06.819Z,32.70
2018-06-15T11:12:35.458Z,32.50
2018-06-15T11:15:05.636Z,32.00
2018-06-15T11:17:35.067Z,32.20
2018-06-15T11:20:04.235Z,32.00
2018-06-15T11:22:32.819Z,31.20
2018-06-15T11:25:01.442Z,30.60
2018-06-15T11:27:30.187Z,30.20
2018-06-15T11:30:06.506Z,30.20
2018-06-15T11:32:35.527Z,30.20
